SHHF weather

Hospital FACH Heliport
Santiago, Santiago Metropolitan Region, Chile

Public forecast

Using degrees Celsius for public forecast. Weather courtesy of forecast.io.

Closest aviation weather report (METAR) to Hospital FACH Heliport

Report is more than 6 hours old.

Closest report is Eulogio Sánchez Airport, 3.6 nm (6.6 km) S. Retrieved 2020/08/02 22:00 UTC (14 hours ago):

SCTB 022200Z 00000KT CAVOK 19/01 Q1018

Closest aviation forecast (TAF) to Hospital FACH Heliport

Closest forecast is Comodoro Arturo Merino Benítez International Airport, 12.0 nm (22.3 km) W. Retrieved 2020/08/03 06:00 UTC (6 hours ago):

TAF SCEL 030410Z 0306/0406 03004KT 7000 NSC TX18/0318Z TN03/0310Z BECMG 0307/0309 4000 BR TEMPO 0309/0312 VRB02KT 0600 BCFG SCT003 BECMG 0314/0316 7000 NSC BECMG 0318/0320 17008KT CAVOK BECMG 0400/0402 8000 NSC